Arcadia, Oregon
Current Conditions -  °F | °C
As of 1:53 AM on Monday 24 Nov 2014 (Local Time) from KONO Reporting Station
Clear Clear  
Wind Chill: 26°   Ceiling: Unl
Heat Index: 34°   Visibility: 10mi
Dew Point: 28°   Wind: 10mph
Humidity: 79%   Direction: 270°W
Pressure: 30.31"   Gusts: NA
Location:  43.754°N, 117.202°W
Report Text: KONO 240853Z AUTO 27009KT 10SM CLR 01/M02 A3031 RMK AO2 SLP280 T00111022 53014
Loading
Personal Weather Stations






























Interactive Weather Map New forecast layout! Learn more

10-Day Weather Forecast

Advertisements
Track Severe Weather on mobile